sensor_id;sensor_type;location;lat;lon;timestamp;pressure;altitude;pressure_sealevel;temperature;humidity
64713;BME280;51140;45.340;5.980;2023-03-25T00:00:57;101798.97;;;8.81;100.00
64713;BME280;51140;45.340;5.980;2023-03-25T00:03:25;101806.69;;;8.77;100.00
64713;BME280;51140;45.340;5.980;2023-03-25T00:05:51;101791.81;;;8.66;100.00
64713;BME280;51140;45.340;5.980;2023-03-25T00:08:17;101784.75;;;8.57;100.00
64713;BME280;51140;45.340;5.980;2023-03-25T00:10:42;101779.53;;;8.56;100.00
64713;BME280;51140;45.340;5.980;2023-03-25T00:13:08;101791.75;;;8.61;100.00
64713;BME280;51140;45.340;5.980;2023-03-25T00:15:33;101789.03;;;8.54;100.00
64713;BME280;51140;45.340;5.980;2023-03-25T00:17:59;101782.06;;;8.51;100.00
64713;BME280;51140;45.340;5.980;2023-03-25T00:20:26;101797.56;;;8.45;100.00
64713;BME280;51140;45.340;5.980;2023-03-25T00:22:52;101773.13;;;8.34;100.00
64713;BME280;51140;45.340;5.980;2023-03-25T00:25:18;101745.25;;;8.24;100.00
64713;BME280;51140;45.340;5.980;2023-03-25T00:27:45;101720.06;;;8.20;100.00
64713;BME280;51140;45.340;5.980;2023-03-25T00:30:15;101697.50;;;8.15;100.00
64713;BME280;51140;45.340;5.980;2023-03-25T00:32:41;101696.66;;;8.16;100.00
64713;BME280;51140;45.340;5.980;2023-03-25T00:35:14;101686.22;;;8.12;100.00
64713;BME280;51140;45.340;5.980;2023-03-25T00:37:42;101658.38;;;8.02;100.00
64713;BME280;51140;45.340;5.980;2023-03-25T00:40:08;101649.63;;;7.97;100.00
64713;BME280;51140;45.340;5.980;2023-03-25T00:42:33;101633.97;;;7.92;100.00
64713;BME280;51140;45.340;5.980;2023-03-25T00:44:59;101638.22;;;7.85;100.00
64713;BME280;51140;45.340;5.980;2023-03-25T00:47:25;101629.47;;;7.79;100.00
64713;BME280;51140;45.340;5.980;2023-03-25T00:49:51;101627.66;;;7.75;100.00
64713;BME280;51140;45.340;5.980;2023-03-25T00:52:16;101618.06;;;7.69;100.00
64713;BME280;51140;45.340;5.980;2023-03-25T00:54:43;101600.59;;;7.59;100.00
64713;BME280;51140;45.340;5.980;2023-03-25T00:57:09;101567.69;;;7.57;100.00
64713;BME280;51140;45.340;5.980;2023-03-25T00:59:35;101535.56;;;7.48;100.00
64713;BME280;51140;45.340;5.980;2023-03-25T01:02:01;101532.03;;;7.42;100.00
64713;BME280;51140;45.340;5.980;2023-03-25T01:04:27;101532.94;;;7.45;100.00
64713;BME280;51140;45.340;5.980;2023-03-25T01:06:54;101527.84;;;7.53;100.00
64713;BME280;51140;45.340;5.980;2023-03-25T01:09:19;101537.34;;;7.51;100.00
64713;BME280;51140;45.340;5.980;2023-03-25T01:11:46;101523.53;;;7.53;100.00
64713;BME280;51140;45.340;5.980;2023-03-25T01:14:15;101529.56;;;7.51;100.00
64713;BME280;51140;45.340;5.980;2023-03-25T01:16:42;101532.25;;;7.59;100.00
64713;BME280;51140;45.340;5.980;2023-03-25T01:19:08;101522.72;;;7.58;100.00
64713;BME280;51140;45.340;5.980;2023-03-25T01:21:33;101531.47;;;7.61;100.00
64713;BME280;51140;45.340;5.980;2023-03-25T01:24:01;101538.41;;;7.62;100.00
64713;BME280;51140;45.340;5.980;2023-03-25T01:26:27;101512.44;;;7.61;100.00
64713;BME280;51140;45.340;5.980;2023-03-25T01:28:53;101495.94;;;7.59;100.00
64713;BME280;51140;45.340;5.980;2023-03-25T01:31:18;101499.47;;;7.61;100.00
64713;BME280;51140;45.340;5.980;2023-03-25T01:33:47;101496.78;;;7.56;100.00
64713;BME280;51140;45.340;5.980;2023-03-25T01:36:12;101486.50;;;7.62;100.00
64713;BME280;51140;45.340;5.980;2023-03-25T01:38:39;101458.97;;;7.75;100.00
64713;BME280;51140;45.340;5.980;2023-03-25T01:41:05;101444.25;;;7.74;100.00
64713;BME280;51140;45.340;5.980;2023-03-25T01:43:32;101422.53;;;7.66;100.00
64713;BME280;51140;45.340;5.980;2023-03-25T01:45:58;101458.03;;;7.67;100.00
64713;BME280;51140;45.340;5.980;2023-03-25T01:48:44;101527.63;;;7.98;100.00
64713;BME280;51140;45.340;5.980;2023-03-25T01:51:13;101572.00;;;8.16;100.00
64713;BME280;51140;45.340;5.980;2023-03-25T01:53:41;101616.44;;;8.38;100.00
64713;BME280;51140;45.340;5.980;2023-03-25T01:56:09;101620.56;;;8.24;100.00
64713;BME280;51140;45.340;5.980;2023-03-25T01:58:37;101642.22;;;8.23;100.00
64713;BME280;51140;45.340;5.980;2023-03-25T02:01:03;101676.94;;;8.29;100.00
64713;BME280;51140;45.340;5.980;2023-03-25T02:03:30;101701.19;;;8.30;100.00
64713;BME280;51140;45.340;5.980;2023-03-25T02:06:05;101717.75;;;8.36;100.00
64713;BME280;51140;45.340;5.980;2023-03-25T02:08:35;101720.47;;;8.42;100.00
64713;BME280;51140;45.340;5.980;2023-03-25T02:11:04;101722.94;;;8.35;100.00
64713;BME280;51140;45.340;5.980;2023-03-25T02:13:31;101698.44;;;8.21;100.00
64713;BME280;51140;45.340;5.980;2023-03-25T02:21:27;101696.84;;;8.30;100.00
64713;BME280;51140;45.340;5.980;2023-03-25T02:27:16;101715.31;;;8.47;100.00
64713;BME280;51140;45.340;5.980;2023-03-25T02:30:08;101716.25;;;8.51;100.00
64713;BME280;51140;45.340;5.980;2023-03-25T02:43:23;101728.53;;;8.64;100.00
64713;BME280;51140;45.340;5.980;2023-03-25T02:45:54;101751.16;;;8.71;100.00
64713;BME280;51140;45.340;5.980;2023-03-25T02:49:08;101761.84;;;8.92;100.00
64713;BME280;51140;45.340;5.980;2023-03-25T02:51:57;101758.28;;;8.84;100.00
64713;BME280;51140;45.340;5.980;2023-03-25T02:54:26;101792.28;;;9.01;100.00
64713;BME280;51140;45.340;5.980;2023-03-25T02:56:55;101800.09;;;9.01;100.00
64713;BME280;51140;45.340;5.980;2023-03-25T02:59:23;101796.53;;;8.93;100.00
64713;BME280;51140;45.340;5.980;2023-03-25T03:01:55;101787.81;;;8.89;100.00
64713;BME280;51140;45.340;5.980;2023-03-25T03:04:23;101803.50;;;8.97;100.00
64713;BME280;51140;45.340;5.980;2023-03-25T03:06:51;101798.19;;;8.88;100.00
64713;BME280;51140;45.340;5.980;2023-03-25T03:14:42;101742.41;;;8.64;100.00
64713;BME280;51140;45.340;5.980;2023-03-25T03:20:16;101762.34;;;8.67;100.00
64713;BME280;51140;45.340;5.980;2023-03-25T03:22:58;101769.03;;;8.48;100.00
64713;BME280;51140;45.340;5.980;2023-03-25T03:25:27;101734.72;;;8.14;100.00
64713;BME280;51140;45.340;5.980;2023-03-25T03:33:29;101608.66;;;7.77;100.00
64713;BME280;51140;45.340;5.980;2023-03-25T03:36:06;101608.75;;;7.82;100.00
64713;BME280;51140;45.340;5.980;2023-03-25T03:38:44;101595.66;;;7.74;100.00
64713;BME280;51140;45.340;5.980;2023-03-25T03:41:16;101568.72;;;7.66;100.00
64713;BME280;51140;45.340;5.980;2023-03-25T03:44:03;101559.22;;;7.67;100.00
64713;BME280;51140;45.340;5.980;2023-03-25T03:46:37;101590.75;;;7.96;100.00
64713;BME280;51140;45.340;5.980;2023-03-25T03:49:09;101626.38;;;8.04;100.00
64713;BME280;51140;45.340;5.980;2023-03-25T03:51:42;101626.25;;;7.97;100.00
64713;BME280;51140;45.340;5.980;2023-03-25T03:54:29;101625.28;;;7.90;100.00
64713;BME280;51140;45.340;5.980;2023-03-25T03:57:00;101624.34;;;7.83;100.00
64713;BME280;51140;45.340;5.980;2023-03-25T04:02:11;101639.13;;;7.91;100.00
64713;BME280;51140;45.340;5.980;2023-03-25T04:04:38;101640.97;;;7.98;100.00
64713;BME280;51140;45.340;5.980;2023-03-25T04:07:19;101688.09;;;8.24;100.00
64713;BME280;51140;45.340;5.980;2023-03-25T04:12:31;101703.72;;;8.27;100.00
64713;BME280;51140;45.340;5.980;2023-03-25T04:15:02;101706.25;;;8.22;100.00
64713;BME280;51140;45.340;5.980;2023-03-25T04:17:28;101701.88;;;8.18;100.00
64713;BME280;51140;45.340;5.980;2023-03-25T04:19:55;101698.22;;;8.04;100.00
64713;BME280;51140;45.340;5.980;2023-03-25T04:22:20;101694.59;;;7.96;100.00
64713;BME280;51140;45.340;5.980;2023-03-25T04:24:46;101662.28;;;7.75;100.00
64713;BME280;51140;45.340;5.980;2023-03-25T04:27:15;101664.81;;;7.72;100.00
64713;BME280;51140;45.340;5.980;2023-03-25T04:29:40;101665.03;;;7.86;100.00
64713;BME280;51140;45.340;5.980;2023-03-25T04:32:09;101653.88;;;7.93;100.00
64713;BME280;51140;45.340;5.980;2023-03-25T04:34:35;101609.50;;;7.75;100.00
64713;BME280;51140;45.340;5.980;2023-03-25T04:37:00;101600.69;;;7.64;100.00
64713;BME280;51140;45.340;5.980;2023-03-25T04:39:26;101593.72;;;7.61;100.00
64713;BME280;51140;45.340;5.980;2023-03-25T04:41:54;101598.09;;;7.64;100.00
64713;BME280;51140;45.340;5.980;2023-03-25T04:44:21;101597.34;;;7.72;100.00
64713;BME280;51140;45.340;5.980;2023-03-25T04:46:47;101597.34;;;7.71;100.00
64713;BME280;51140;45.340;5.980;2023-03-25T04:49:21;101603.31;;;7.67;100.00
64713;BME280;51140;45.340;5.980;2023-03-25T04:51:50;101618.84;;;7.64;100.00
64713;BME280;51140;45.340;5.980;2023-03-25T04:54:18;101632.56;;;7.58;100.00
64713;BME280;51140;45.340;5.980;2023-03-25T04:56:44;101635.91;;;7.49;100.00
64713;BME280;51140;45.340;5.980;2023-03-25T04:59:11;101639.38;;;7.51;100.00
64713;BME280;51140;45.340;5.980;2023-03-25T05:01:38;101650.72;;;7.57;100.00
64713;BME280;51140;45.340;5.980;2023-03-25T05:04:07;101672.44;;;7.62;100.00
64713;BME280;51140;45.340;5.980;2023-03-25T05:06:41;101675.97;;;7.67;100.00
64713;BME280;51140;45.340;5.980;2023-03-25T05:09:13;101717.00;;;7.89;100.00
64713;BME280;51140;45.340;5.980;2023-03-25T05:11:40;101721.41;;;7.95;100.00
64713;BME280;51140;45.340;5.980;2023-03-25T05:14:07;101734.59;;;8.05;100.00
64713;BME280;51140;45.340;5.980;2023-03-25T05:16:33;101702.97;;;7.78;100.00
64713;BME280;51140;45.340;5.980;2023-03-25T05:18:58;101724.72;;;7.86;100.00
64713;BME280;51140;45.340;5.980;2023-03-25T05:21:24;101721.78;;;7.63;100.00
64713;BME280;51140;45.340;5.980;2023-03-25T05:23:49;101725.09;;;7.58;100.00
64713;BME280;51140;45.340;5.980;2023-03-25T05:26:17;101736.13;;;7.44;100.00
64713;BME280;51140;45.340;5.980;2023-03-25T05:28:43;101749.88;;;7.40;100.00
64713;BME280;51140;45.340;5.980;2023-03-25T05:31:09;101749.88;;;7.40;100.00
64713;BME280;51140;45.340;5.980;2023-03-25T05:33:36;101732.50;;;7.36;100.00
64713;BME280;51140;45.340;5.980;2023-03-25T05:36:10;101722.75;;;7.23;100.00
64713;BME280;51140;45.340;5.980;2023-03-25T05:38:37;101706.16;;;7.15;100.00
64713;BME280;51140;45.340;5.980;2023-03-25T05:41:06;101717.66;;;7.28;100.00
64713;BME280;51140;45.340;5.980;2023-03-25T05:43:35;101718.56;;;7.30;100.00
64713;BME280;51140;45.340;5.980;2023-03-25T05:46:01;101743.09;;;7.47;100.00
64713;BME280;51140;45.340;5.980;2023-03-25T05:48:28;101752.75;;;7.55;100.00
64713;BME280;51140;45.340;5.980;2023-03-25T05:50:56;101759.84;;;7.64;100.00
64713;BME280;51140;45.340;5.980;2023-03-25T05:53:22;101776.47;;;7.75;100.00
64713;BME280;51140;45.340;5.980;2023-03-25T05:55:48;101795.84;;;7.96;100.00
64713;BME280;51140;45.340;5.980;2023-03-25T05:58:16;101825.53;;;8.08;100.00
64713;BME280;51140;45.340;5.980;2023-03-25T06:00:42;101829.97;;;8.17;100.00
64713;BME280;51140;45.340;5.980;2023-03-25T06:03:08;101850.25;;;8.38;100.00
64713;BME280;51140;45.340;5.980;2023-03-25T06:05:38;101846.03;;;8.41;100.00
64713;BME280;51140;45.340;5.980;2023-03-25T06:08:03;101852.09;;;8.42;100.00
64713;BME280;51140;45.340;5.980;2023-03-25T06:10:28;101855.72;;;8.53;100.00
64713;BME280;51140;45.340;5.980;2023-03-25T06:12:54;101852.31;;;8.57;100.00
64713;BME280;51140;45.340;5.980;2023-03-25T06:15:19;101867.44;;;8.83;100.00
64713;BME280;51140;45.340;5.980;2023-03-25T06:17:58;101836.44;;;8.96;100.00
64713;BME280;51140;45.340;5.980;2023-03-25T06:20:25;101767.03;;;8.92;100.00
64713;BME280;51140;45.340;5.980;2023-03-25T06:22:50;101678.63;;;8.91;100.00
64713;BME280;51140;45.340;5.980;2023-03-25T06:25:18;101556.38;;;8.86;100.00
64713;BME280;51140;45.340;5.980;2023-03-25T06:27:46;101403.91;;;8.91;100.00
64713;BME280;51140;45.340;5.980;2023-03-25T06:30:15;101322.44;;;8.95;100.00
64713;BME280;51140;45.340;5.980;2023-03-25T06:32:41;101221.94;;;9.05;100.00
64713;BME280;51140;45.340;5.980;2023-03-25T06:35:08;101221.16;;;9.27;100.00
64713;BME280;51140;45.340;5.980;2023-03-25T06:37:35;101216.88;;;9.51;100.00
64713;BME280;51140;45.340;5.980;2023-03-25T06:40:02;101161.34;;;9.32;100.00
64713;BME280;51140;45.340;5.980;2023-03-25T06:42:29;101100.59;;;9.13;100.00
64713;BME280;51140;45.340;5.980;2023-03-25T06:44:55;101059.88;;;9.04;100.00
64713;BME280;51140;45.340;5.980;2023-03-25T06:47:21;101039.06;;;9.03;100.00
64713;BME280;51140;45.340;5.980;2023-03-25T06:49:46;101012.19;;;9.16;100.00
64713;BME280;51140;45.340;5.980;2023-03-25T06:52:12;100979.25;;;9.27;100.00
64713;BME280;51140;45.340;5.980;2023-03-25T06:54:38;100921.16;;;9.24;100.00
64713;BME280;51140;45.340;5.980;2023-03-25T06:57:04;100910.75;;;9.33;100.00
64713;BME280;51140;45.340;5.980;2023-03-25T06:59:30;100937.56;;;9.53;100.00
64713;BME280;51140;45.340;5.980;2023-03-25T07:01:56;101023.47;;;9.35;100.00
64713;BME280;51140;45.340;5.980;2023-03-25T07:04:22;100987.91;;;9.34;100.00
64713;BME280;51140;45.340;5.980;2023-03-25T07:06:47;100973.09;;;9.57;100.00
64713;BME280;51140;45.340;5.980;2023-03-25T07:09:12;100930.66;;;9.41;100.00
64713;BME280;51140;45.340;5.980;2023-03-25T07:11:38;100903.84;;;9.23;100.00
64713;BME280;51140;45.340;5.980;2023-03-25T07:14:03;100879.50;;;9.36;100.00
64713;BME280;51140;45.340;5.980;2023-03-25T07:16:29;100865.59;;;9.48;100.00
64713;BME280;51140;45.340;5.980;2023-03-25T07:18:54;100960.00;;;9.89;100.00
64713;BME280;51140;45.340;5.980;2023-03-25T07:21:21;100974.53;;;10.39;100.00
64713;BME280;51140;45.340;5.980;2023-03-25T07:23:46;100997.66;;;10.94;100.00
64713;BME280;51140;45.340;5.980;2023-03-25T07:26:11;100965.88;;;11.43;100.00
64713;BME280;51140;45.340;5.980;2023-03-25T07:28:41;100877.16;;;11.43;100.00
64713;BME280;51140;45.340;5.980;2023-03-25T07:31:08;100798.03;;;11.39;100.00
64713;BME280;51140;45.340;5.980;2023-03-25T07:33:34;100788.22;;;11.56;100.00
64713;BME280;51140;45.340;5.980;2023-03-25T07:36:00;100716.41;;;11.28;100.00
64713;BME280;51140;45.340;5.980;2023-03-25T07:38:25;100555.81;;;11.07;100.00
64713;BME280;51140;45.340;5.980;2023-03-25T07:40:51;100440.47;;;10.91;100.00
64713;BME280;51140;45.340;5.980;2023-03-25T07:43:16;100353.56;;;11.36;100.00
64713;BME280;51140;45.340;5.980;2023-03-25T07:45:41;100209.34;;;12.05;100.00
64713;BME280;51140;45.340;5.980;2023-03-25T07:48:07;100043.88;;;12.06;100.00
64713;BME280;51140;45.340;5.980;2023-03-25T07:50:38;99885.75;;;12.51;100.00
64713;BME280;51140;45.340;5.980;2023-03-25T07:53:03;99668.13;;;12.20;100.00
64713;BME280;51140;45.340;5.980;2023-03-25T07:55:29;99520.16;;;12.88;100.00
64713;BME280;51140;45.340;5.980;2023-03-25T07:57:54;99387.03;;;14.39;100.00
64713;BME280;51140;45.340;5.980;2023-03-25T08:00:22;99094.97;;;14.61;100.00
64713;BME280;51140;45.340;5.980;2023-03-25T08:02:47;98957.44;;;14.66;100.00
64713;BME280;51140;45.340;5.980;2023-03-25T08:05:13;98773.94;;;14.19;100.00
64713;BME280;51140;45.340;5.980;2023-03-25T08:07:46;98696.78;;;14.39;100.00
64713;BME280;51140;45.340;5.980;2023-03-25T08:10:11;98677.69;;;14.67;100.00
64713;BME280;51140;45.340;5.980;2023-03-25T08:12:39;98669.06;;;15.36;100.00
64713;BME280;51140;45.340;5.980;2023-03-25T08:15:06;98532.56;;;15.36;100.00
64713;BME280;51140;45.340;5.980;2023-03-25T08:17:31;98527.00;;;15.14;100.00
64713;BME280;51140;45.340;5.980;2023-03-25T08:19:57;98542.88;;;15.39;100.00
64713;BME280;51140;45.340;5.980;2023-03-25T08:22:23;98512.59;;;15.07;100.00
64713;BME280;51140;45.340;5.980;2023-03-25T08:24:48;98517.56;;;14.84;100.00
64713;BME280;51140;45.340;5.980;2023-03-25T08:27:14;98526.34;;;14.83;100.00
64713;BME280;51140;45.340;5.980;2023-03-25T08:29:40;98547.25;;;14.56;100.00
64713;BME280;51140;45.340;5.980;2023-03-25T08:32:05;98529.41;;;14.33;100.00
64713;BME280;51140;45.340;5.980;2023-03-25T08:34:31;98542.66;;;14.88;100.00
64713;BME280;51140;45.340;5.980;2023-03-25T08:36:58;98554.25;;;14.41;100.00
64713;BME280;51140;45.340;5.980;2023-03-25T08:39:24;98572.13;;;13.91;100.00
64713;BME280;51140;45.340;5.980;2023-03-25T08:41:54;98608.44;;;13.51;100.00
64713;BME280;51140;45.340;5.980;2023-03-25T08:44:21;98649.88;;;13.43;100.00
64713;BME280;51140;45.340;5.980;2023-03-25T08:46:46;98663.56;;;13.32;100.00
64713;BME280;51140;45.340;5.980;2023-03-25T08:49:12;98691.84;;;13.41;100.00
64713;BME280;51140;45.340;5.980;2023-03-25T08:51:37;98685.19;;;13.36;100.00
64713;BME280;51140;45.340;5.980;2023-03-25T08:54:02;98698.19;;;13.53;100.00
64713;BME280;51140;45.340;5.980;2023-03-25T08:56:28;98684.84;;;13.58;100.00
64713;BME280;51140;45.340;5.980;2023-03-25T08:58:53;98654.94;;;14.37;100.00
64713;BME280;51140;45.340;5.980;2023-03-25T09:01:19;98551.25;;;14.76;100.00
64713;BME280;51140;45.340;5.980;2023-03-25T09:03:46;98457.00;;;15.54;100.00
64713;BME280;51140;45.340;5.980;2023-03-25T09:06:11;98449.09;;;15.81;100.00
64713;BME280;51140;45.340;5.980;2023-03-25T09:08:37;98488.06;;;15.34;100.00
64713;BME280;51140;45.340;5.980;2023-03-25T09:11:02;98581.28;;;15.13;100.00
64713;BME280;51140;45.340;5.980;2023-03-25T09:13:28;98651.22;;;15.00;100.00
64713;BME280;51140;45.340;5.980;2023-03-25T09:15:53;98715.59;;;15.62;100.00
64713;BME280;51140;45.340;5.980;2023-03-25T09:18:19;98610.91;;;18.89;100.00
64713;BME280;51140;45.340;5.980;2023-03-25T09:20:44;98624.97;;;24.24;100.00
64713;BME280;51140;45.340;5.980;2023-03-25T09:23:14;96239.84;;;30.70;100.00
64713;BME280;51140;45.340;5.980;2023-03-25T09:25:40;96875.56;;;22.81;100.00
64713;BME280;51140;45.340;5.980;2023-03-25T09:28:05;96714.34;;;19.12;100.00
64713;BME280;51140;45.340;5.980;2023-03-25T09:30:31;96803.19;;;17.09;100.00
64713;BME280;51140;45.340;5.980;2023-03-25T09:32:56;96829.03;;;15.58;100.00
64713;BME280;51140;45.340;5.980;2023-03-25T09:35:22;96906.94;;;15.48;100.00
64713;BME280;51140;45.340;5.980;2023-03-25T09:37:47;97104.69;;;15.68;100.00
64713;BME280;51140;45.340;5.980;2023-03-25T09:40:17;97172.38;;;15.64;100.00
64713;BME280;51140;45.340;5.980;2023-03-25T09:54:04;97250.38;;;16.43;100.00
64713;BME280;51140;45.340;5.980;2023-03-25T09:56:37;97247.84;;;17.09;100.00
64713;BME280;51140;45.340;5.980;2023-03-25T09:59:16;97216.00;;;17.49;100.00
64713;BME280;51140;45.340;5.980;2023-03-25T10:13:20;97214.97;;;17.60;100.00
64713;BME280;51140;45.340;5.980;2023-03-25T10:16:06;97015.50;;;18.85;100.00
64713;BME280;51140;45.340;5.980;2023-03-25T10:21:24;96913.59;;;18.24;100.00
64713;BME280;51140;45.340;5.980;2023-03-25T10:24:12;96960.41;;;17.42;100.00
64713;BME280;51140;45.340;5.980;2023-03-25T10:29:38;96907.56;;;17.79;100.00
64713;BME280;51140;45.340;5.980;2023-03-25T10:32:15;96936.25;;;17.65;100.00
64713;BME280;51140;45.340;5.980;2023-03-25T10:34:46;96922.56;;;18.05;100.00
64713;BME280;51140;45.340;5.980;2023-03-25T10:37:24;96935.50;;;18.50;100.00
64713;BME280;51140;45.340;5.980;2023-03-25T10:39:54;96903.09;;;19.49;100.00
64713;BME280;51140;45.340;5.980;2023-03-25T10:42:26;97020.78;;;19.43;100.00
64713;BME280;51140;45.340;5.980;2023-03-25T10:44:53;97013.13;;;19.90;100.00
64713;BME280;51140;45.340;5.980;2023-03-25T10:47:22;97214.78;;;19.75;100.00
64713;BME280;51140;45.340;5.980;2023-03-25T10:49:50;97193.69;;;19.23;100.00
64713;BME280;51140;45.340;5.980;2023-03-25T10:52:16;97337.50;;;20.06;100.00
64713;BME280;51140;45.340;5.980;2023-03-25T10:54:50;97394.34;;;19.84;100.00
64713;BME280;51140;45.340;5.980;2023-03-25T10:57:22;97211.16;;;18.98;100.00
64713;BME280;51140;45.340;5.980;2023-03-25T11:02:30;98493.22;;;28.52;100.00
64713;BME280;51140;45.340;5.980;2023-03-25T11:04:59;98570.50;;;22.46;100.00
64713;BME280;51140;45.340;5.980;2023-03-25T11:07:32;98559.06;;;23.65;100.00
64713;BME280;51140;45.340;5.980;2023-03-25T11:10:19;98508.53;;;28.58;100.00
64713;BME280;51140;45.340;5.980;2023-03-25T11:12:45;98493.91;;;27.47;100.00
64713;BME280;51140;45.340;5.980;2023-03-25T11:15:33;98433.03;;;28.25;100.00
64713;BME280;51140;45.340;5.980;2023-03-25T11:20:55;98483.41;;;25.96;100.00
64713;BME280;51140;45.340;5.980;2023-03-25T11:23:33;98460.56;;;26.65;100.00
64713;BME280;51140;45.340;5.980;2023-03-25T11:26:10;98472.94;;;27.05;100.00
64713;BME280;51140;45.340;5.980;2023-03-25T11:28:43;98514.81;;;21.98;100.00
64713;BME280;51140;45.340;5.980;2023-03-25T11:31:16;98486.19;;;24.01;100.00
64713;BME280;51140;45.340;5.980;2023-03-25T11:33:44;98438.13;;;27.82;100.00
64713;BME280;51140;45.340;5.980;2023-03-25T11:36:47;98437.81;;;27.08;100.00
64713;BME280;51140;45.340;5.980;2023-03-25T11:41:47;98515.66;;;20.81;100.00
64713;BME280;51140;45.340;5.980;2023-03-25T11:44:22;98516.75;;;19.32;100.00
64713;BME280;51140;45.340;5.980;2023-03-25T11:46:56;98499.38;;;19.51;100.00
64713;BME280;51140;45.340;5.980;2023-03-25T11:49:23;98447.31;;;19.41;100.00
64713;BME280;51140;45.340;5.980;2023-03-25T11:51:57;98450.72;;;19.32;100.00
64713;BME280;51140;45.340;5.980;2023-03-25T11:54:24;98431.72;;;19.38;100.00
64713;BME280;51140;45.340;5.980;2023-03-25T11:56:50;98433.44;;;19.28;100.00
64713;BME280;51140;45.340;5.980;2023-03-25T12:01:48;98429.84;;;18.97;100.00
64713;BME280;51140;45.340;5.980;2023-03-25T12:04:18;98416.53;;;19.20;100.00
64713;BME280;51140;45.340;5.980;2023-03-25T12:06:55;98426.19;;;18.66;100.00
64713;BME280;51140;45.340;5.980;2023-03-25T12:09:25;98445.72;;;18.08;100.00
64713;BME280;51140;45.340;5.980;2023-03-25T12:25:23;98336.97;;;19.13;100.00
64713;BME280;51140;45.340;5.980;2023-03-25T12:36:04;98359.72;;;19.46;100.00
64713;BME280;51140;45.340;5.980;2023-03-25T12:44:17;98365.84;;;20.28;100.00
64713;BME280;51140;45.340;5.980;2023-03-25T12:49:42;98379.53;;;19.73;100.00
64713;BME280;51140;45.340;5.980;2023-03-25T12:58:13;98348.25;;;18.94;100.00
64713;BME280;51140;45.340;5.980;2023-03-25T13:03:43;98352.94;;;18.47;100.00
64713;BME280;51140;45.340;5.980;2023-03-25T13:09:22;98349.41;;;18.58;100.00
64713;BME280;51140;45.340;5.980;2023-03-25T13:17:45;98346.13;;;19.62;100.00
64713;BME280;51140;45.340;5.980;2023-03-25T13:20:12;98331.66;;;19.66;100.00
64713;BME280;51140;45.340;5.980;2023-03-25T13:22:40;98341.69;;;18.89;100.00
64713;BME280;51140;45.340;5.980;2023-03-25T13:25:27;98332.88;;;18.67;100.00
64713;BME280;51140;45.340;5.980;2023-03-25T13:28:00;98329.06;;;18.38;100.00
64713;BME280;51140;45.340;5.980;2023-03-25T13:30:39;98327.41;;;18.80;100.00
64713;BME280;51140;45.340;5.980;2023-03-25T13:33:27;98320.19;;;18.93;100.00
64713;BME280;51140;45.340;5.980;2023-03-25T13:36:00;98326.16;;;19.16;100.00
64713;BME280;51140;45.340;5.980;2023-03-25T13:38:37;98320.94;;;19.05;100.00
64713;BME280;51140;45.340;5.980;2023-03-25T13:41:11;98315.78;;;19.45;100.00
64713;BME280;51140;45.340;5.980;2023-03-25T13:46:12;98324.94;;;19.20;100.00
64713;BME280;51140;45.340;5.980;2023-03-25T13:48:53;98334.22;;;19.15;100.00
64713;BME280;51140;45.340;5.980;2023-03-25T13:51:20;98327.31;;;19.44;100.00
64713;BME280;51140;45.340;5.980;2023-03-25T13:54:06;98321.69;;;19.79;100.00
64713;BME280;51140;45.340;5.980;2023-03-25T14:10:39;98336.41;;;18.89;100.00
64713;BME280;51140;45.340;5.980;2023-03-25T14:13:16;98317.53;;;19.14;100.00
64713;BME280;51140;45.340;5.980;2023-03-25T14:15:58;98304.00;;;19.07;100.00
64713;BME280;51140;45.340;5.980;2023-03-25T14:18:27;98310.78;;;19.21;100.00
64713;BME280;51140;45.340;5.980;2023-03-25T14:21:42;98315.94;;;19.02;100.00
64713;BME280;51140;45.340;5.980;2023-03-25T14:23:41;98308.59;;;19.05;100.00
64713;BME280;51140;45.340;5.980;2023-03-25T14:26:08;98310.34;;;18.63;100.00
64713;BME280;51140;45.340;5.980;2023-03-25T14:28:42;98330.63;;;18.40;100.00
64713;BME280;51140;45.340;5.980;2023-03-25T14:39:37;98319.63;;;17.46;100.00
64713;BME280;51140;45.340;5.980;2023-03-25T14:42:38;98296.63;;;17.48;100.00
64713;BME280;51140;45.340;5.980;2023-03-25T14:47:56;98305.13;;;17.29;100.00
64713;BME280;51140;45.340;5.980;2023-03-25T14:52:54;98306.97;;;17.05;100.00
64713;BME280;51140;45.340;5.980;2023-03-25T14:55:28;98278.19;;;16.79;100.00
64713;BME280;51140;45.340;5.980;2023-03-25T15:00:43;98279.97;;;16.31;100.00
64713;BME280;51140;45.340;5.980;2023-03-25T15:03:15;98112.44;;;16.68;100.00
64713;BME280;51140;45.340;5.980;2023-03-25T15:05:42;98022.19;;;16.90;100.00
64713;BME280;51140;45.340;5.980;2023-03-25T15:10:43;98090.94;;;16.85;100.00
64713;BME280;51140;45.340;5.980;2023-03-25T15:18:10;98151.97;;;16.55;100.00
64713;BME280;51140;45.340;5.980;2023-03-25T15:20:36;98180.47;;;16.73;100.00
64713;BME280;51140;45.340;5.980;2023-03-25T15:25:43;98106.53;;;16.53;100.00
64713;BME280;51140;45.340;5.980;2023-03-25T15:33:38;98082.69;;;16.90;100.00
64713;BME280;51140;45.340;5.980;2023-03-25T15:51:56;97832.44;;;16.72;100.00
64713;BME280;51140;45.340;5.980;2023-03-25T15:57:13;97848.59;;;16.68;100.00
64713;BME280;51140;45.340;5.980;2023-03-25T15:59:57;97796.84;;;16.57;100.00
64713;BME280;51140;45.340;5.980;2023-03-25T16:02:34;97693.22;;;16.59;100.00
64713;BME280;51140;45.340;5.980;2023-03-25T16:05:01;97165.41;;;16.52;100.00
64713;BME280;51140;45.340;5.980;2023-03-25T16:07:28;97233.91;;;16.70;100.00
64713;BME280;51140;45.340;5.980;2023-03-25T16:10:04;97294.94;;;16.73;100.00
64713;BME280;51140;45.340;5.980;2023-03-25T16:12:33;97551.19;;;16.80;100.00
64713;BME280;51140;45.340;5.980;2023-03-25T16:14:58;97529.00;;;16.73;100.00